createdAt,value
2023-05-06T00:03:51.489Z,8.93
2023-05-06T00:13:53.074Z,8.75
2023-05-06T00:23:54.517Z,8.30
2023-05-06T00:33:55.967Z,10.00
2023-05-06T00:43:57.489Z,10.03
2023-05-06T00:53:59.325Z,9.23
2023-05-06T01:04:01.151Z,8.35
2023-05-06T01:14:11.721Z,8.97
2023-05-06T01:24:13.244Z,8.23
2023-05-06T01:34:20.938Z,8.53
2023-05-06T01:44:22.939Z,9.00
2023-05-06T01:54:24.613Z,10.15
2023-05-06T02:04:26.155Z,13.47
2023-05-06T02:14:27.657Z,8.17
2023-05-06T02:24:29.188Z,9.63
2023-05-06T02:34:30.690Z,11.07
2023-05-06T02:44:32.227Z,9.85
2023-05-06T02:54:33.746Z,12.10
2023-05-06T03:04:35.366Z,10.27
2023-05-06T03:14:36.979Z,13.23
2023-05-06T03:24:38.549Z,16.73
2023-05-06T03:34:40.062Z,12.70
2023-05-06T03:44:41.586Z,14.67
2023-05-06T03:54:43.081Z,19.83
2023-05-06T04:04:44.578Z,18.50
2023-05-06T04:14:46.083Z,13.93
2023-05-06T04:24:47.575Z,13.73
2023-05-06T04:34:49.103Z,12.83
2023-05-06T04:44:50.663Z,14.17
2023-05-06T04:54:52.120Z,10.40
2023-05-06T05:04:53.744Z,11.40
2023-05-06T05:14:55.255Z,12.25
2023-05-06T05:24:56.907Z,12.47
2023-05-06T05:34:58.360Z,10.23
2023-05-06T05:45:00.558Z,9.23
2023-05-06T05:55:02.093Z,8.27
2023-05-06T06:05:03.919Z,9.95
2023-05-06T06:15:05.706Z,7.53
2023-05-06T06:25:07.868Z,8.33
2023-05-06T06:35:09.673Z,8.13
2023-05-06T06:45:11.947Z,12.23
2023-05-06T06:55:13.788Z,11.82
2023-05-06T07:05:15.514Z,7.87
2023-05-06T07:15:17.038Z,10.30
2023-05-06T07:25:18.641Z,10.60
2023-05-06T07:35:20.151Z,6.63
2023-05-06T07:45:21.631Z,6.57
2023-05-06T07:55:23.174Z,8.17
2023-05-06T08:05:24.715Z,7.57
2023-05-06T08:15:26.209Z,8.30
2023-05-06T08:25:27.689Z,9.47
2023-05-06T08:35:29.458Z,14.15
2023-05-06T08:45:32.484Z,13.50
2023-05-06T08:55:34.949Z,9.70
2023-05-06T09:05:36.470Z,9.47
2023-05-06T09:15:42.624Z,8.80
2023-05-06T09:25:45.871Z,8.40
2023-05-06T09:35:47.708Z,10.57
2023-05-06T09:45:49.394Z,11.53
2023-05-06T09:55:51.430Z,9.80
2023-05-06T10:05:56.981Z,8.67
2023-05-06T10:16:00.707Z,9.23
2023-05-06T10:26:11.653Z,9.60
2023-05-06T10:36:28.335Z,10.77
2023-05-06T10:46:30.427Z,11.90
2023-05-06T10:56:53.233Z,15.03
2023-05-06T11:07:06.201Z,15.07
2023-05-06T11:17:09.940Z,12.13
2023-05-06T11:27:11.609Z,18.37
2023-05-06T11:37:13.156Z,14.37
2023-05-06T11:47:14.650Z,11.23
2023-05-06T11:57:16.143Z,9.85
2023-05-06T12:07:22.175Z,11.43
2023-05-06T12:17:24.161Z,10.57
2023-05-06T12:27:33.313Z,7.17
2023-05-06T12:37:35.187Z,7.53
2023-05-06T12:47:36.999Z,7.07
2023-05-06T12:57:38.528Z,7.80
2023-05-06T13:07:40.964Z,6.90
2023-05-06T13:17:42.481Z,7.50
2023-05-06T13:27:44.001Z,10.43
2023-05-06T13:37:48.453Z,9.23
2023-05-06T13:47:49.952Z,9.10
2023-05-06T13:57:51.452Z,9.87
2023-05-06T14:07:52.976Z,7.20
2023-05-06T14:17:54.538Z,7.63
2023-05-06T14:27:56.076Z,7.03
2023-05-06T14:37:57.594Z,7.33
2023-05-06T14:48:06.497Z,7.13
2023-05-06T14:58:08.073Z,8.03
2023-05-06T15:08:09.595Z,8.20
2023-05-06T15:18:11.121Z,9.05
2023-05-06T15:28:12.707Z,9.37
2023-05-06T15:38:14.267Z,7.50
2023-05-06T15:48:15.832Z,8.90
2023-05-06T15:58:17.416Z,7.67
2023-05-06T16:08:18.967Z,9.30
2023-05-06T16:18:20.569Z,10.30
2023-05-06T16:28:22.132Z,7.97
2023-05-06T16:38:25.001Z,10.87
2023-05-06T16:48:26.783Z,11.00
2023-05-06T16:58:28.348Z,9.00
2023-05-06T17:18:34.708Z,9.77
2023-05-06T17:28:36.197Z,10.30
2023-05-06T17:38:37.729Z,10.93
2023-05-06T17:48:39.252Z,12.45
2023-05-06T17:58:40.777Z,16.30
2023-05-06T18:08:42.409Z,15.03
2023-05-06T18:18:44.003Z,11.30
2023-05-06T18:28:45.459Z,16.57
2023-05-06T18:38:46.960Z,21.48
2023-05-06T18:48:48.474Z,21.37
2023-05-06T18:58:50.008Z,19.37
2023-05-06T19:08:51.543Z,16.23
2023-05-06T19:18:53.085Z,18.63
2023-05-06T19:28:54.690Z,22.90
2023-05-06T19:38:56.246Z,24.17
2023-05-06T19:48:57.796Z,19.10
2023-05-06T19:58:59.319Z,16.23
2023-05-06T20:09:00.842Z,16.87
2023-05-06T20:19:02.374Z,14.27
2023-05-06T20:29:03.973Z,15.87
2023-05-06T20:39:05.830Z,16.83
2023-05-06T20:49:07.760Z,17.20
2023-05-06T20:59:09.281Z,16.43
2023-05-06T21:09:10.746Z,14.35
2023-05-06T21:19:12.282Z,14.53
2023-05-06T21:29:13.761Z,16.87
2023-05-06T21:39:15.260Z,15.63
2023-05-06T21:49:16.746Z,14.67
2023-05-06T21:59:18.224Z,15.70
2023-05-06T22:09:23.193Z,16.53
2023-05-06T22:19:26.041Z,16.50
2023-05-06T22:29:27.555Z,15.83
2023-05-06T22:39:30.248Z,14.93
2023-05-06T22:49:31.719Z,17.98
2023-05-06T22:59:33.281Z,18.07
2023-05-06T23:09:34.829Z,23.13
2023-05-06T23:19:36.349Z,20.33
2023-05-06T23:29:37.822Z,22.60
2023-05-06T23:39:39.508Z,19.63
2023-05-06T23:49:40.982Z,20.60
2023-05-06T23:59:42.493Z,23.13
